Time;durP1;ratioP1;P1;durP2;ratioP2;P2;SDS_P1;SDS_P2;PMS_P1;PMS_P2;Temp;Humidity;BMP_temperature;BMP_pressure;BME280_temperature;BME280_humidity;BME280_pressure;Samples;Min_cycle;Max_cycle;Signal;HPM_P1;HPM_P2
2022/07/13 03:02:25;;;;;;;1.83;0.60;;;24.00;42.00;;;;;;4974013;23;45287;-64
2022/07/13 03:04:51;;;;;;;1.75;0.77;;;24.00;42.10;;;;;;4902785;28;46406;-62
2022/07/13 03:07:16;;;;;;;2.88;0.80;;;24.00;42.10;;;;;;4906741;28;45308;-62
2022/07/13 03:09:42;;;;;;;1.27;0.90;;;24.00;42.10;;;;;;4911727;28;45273;-62
2022/07/13 03:12:08;;;;;;;0.65;0.65;;;24.00;42.20;;;;;;4911547;28;45431;-62
2022/07/13 03:14:33;;;;;;;2.90;0.70;;;24.00;42.30;;;;;;4915753;28;45256;-63
2022/07/13 03:16:59;;;;;;;0.70;0.70;;;24.00;42.30;;;;;;4914102;28;44706;-62
2022/07/13 03:19:24;;;;;;;0.88;0.82;;;24.00;42.40;;;;;;4915974;28;45283;-62
2022/07/13 03:21:50;;;;;;;1.77;0.90;;;24.00;42.40;;;;;;4936903;28;45140;-64
2022/07/13 03:24:15;;;;;;;1.70;0.70;;;24.00;42.40;;;;;;4927456;28;44932;-61
2022/07/13 03:26:41;;;;;;;4.28;0.75;;;23.90;42.40;;;;;;4899113;28;45885;-60
2022/07/13 03:29:06;;;;;;;0.95;0.65;;;24.00;42.50;;;;;;4934304;28;44794;-62
2022/07/13 03:31:32;;;;;;;0.80;0.80;;;24.00;42.50;;;;;;4902431;28;45391;-62
2022/07/13 03:33:58;;;;;;;0.70;0.70;;;23.90;42.60;;;;;;4936008;28;46164;-62
2022/07/13 03:36:23;;;;;;;1.27;1.00;;;23.90;42.60;;;;;;4929910;28;45570;-61
2022/07/13 03:38:49;;;;;;;1.92;0.85;;;23.90;42.60;;;;;;4927518;28;45023;-61
2022/07/13 03:41:14;;;;;;;1.25;0.90;;;23.90;42.70;;;;;;4903337;28;44669;-62
2022/07/13 03:43:40;;;;;;;2.95;0.80;;;23.90;42.80;;;;;;4929889;28;45954;-63
2022/07/13 03:46:05;;;;;;;1.25;0.88;;;23.90;42.90;;;;;;4930106;28;45612;-62
2022/07/13 03:48:31;;;;;;;1.73;0.82;;;23.80;43.00;;;;;;4928044;28;45376;-61
2022/07/13 03:50:57;;;;;;;1.02;0.90;;;23.80;43.00;;;;;;4933582;28;46252;-63
2022/07/13 03:53:22;;;;;;;0.82;0.73;;;23.80;43.00;;;;;;4923887;28;45335;-63
2022/07/13 03:55:48;;;;;;;1.02;0.82;;;23.90;43.00;;;;;;4926965;28;45326;-61
2022/07/13 03:58:13;;;;;;;0.82;0.65;;;23.90;43.00;;;;;;4931926;28;46385;-64
2022/07/13 04:00:39;;;;;;;0.90;0.77;;;23.90;43.00;;;;;;4924230;28;45857;-63
2022/07/13 04:03:04;;;;;;;1.25;1.10;;;23.90;43.10;;;;;;4928817;28;46438;-63
2022/07/13 04:05:30;;;;;;;2.10;1.00;;;23.90;43.10;;;;;;4904515;28;45210;-62
2022/07/13 04:07:56;;;;;;;1.70;1.20;;;23.90;43.20;;;;;;4931390;28;44893;-63
2022/07/13 04:10:21;;;;;;;4.15;1.02;;;23.90;43.20;;;;;;4933832;28;45479;-62
2022/07/13 04:12:47;;;;;;;1.20;0.88;;;23.90;43.20;;;;;;4927931;28;45873;-64
2022/07/13 04:15:13;;;;;;;1.85;1.10;;;23.90;43.20;;;;;;4928386;28;45548;-59
2022/07/13 04:17:39;;;;;;;4.78;1.00;;;23.90;43.30;;;;;;4917317;28;45535;-64
2022/07/13 04:20:06;;;;;;;3.33;0.90;;;23.90;43.30;;;;;;4934472;28;45693;-63
2022/07/13 04:22:31;;;;;;;1.85;0.80;;;23.80;43.30;;;;;;4930710;28;45252;-65
2022/07/13 04:24:57;;;;;;;1.75;0.82;;;23.90;43.40;;;;;;4911805;28;44936;-62
2022/07/13 04:27:22;;;;;;;0.85;0.70;;;23.80;43.40;;;;;;4928171;28;45215;-64
2022/07/13 04:29:48;;;;;;;1.30;1.00;;;23.80;43.40;;;;;;4925205;28;45140;-60
2022/07/13 04:32:14;;;;;;;1.08;0.77;;;23.80;43.40;;;;;;4918229;28;46225;-60
2022/07/13 04:34:39;;;;;;;2.40;1.10;;;23.80;43.60;;;;;;4911007;28;45293;-63
2022/07/13 04:37:05;;;;;;;1.30;0.93;;;23.80;43.60;;;;;;4926422;28;45034;-62
2022/07/13 04:39:31;;;;;;;1.95;1.02;;;23.80;43.70;;;;;;4896458;28;45564;-64
2022/07/13 04:41:56;;;;;;;4.47;1.10;;;23.80;43.80;;;;;;4920535;28;45031;-64
2022/07/13 04:44:22;;;;;;;1.00;0.70;;;23.80;43.80;;;;;;4914958;28;45485;-61
2022/07/13 04:46:48;;;;;;;1.00;0.90;;;23.80;44.50;;;;;;4911192;28;45062;-62
2022/07/13 04:49:13;;;;;;;1.08;0.73;;;23.80;44.00;;;;;;4927264;28;45777;-65
2022/07/13 04:51:39;;;;;;;5.15;1.00;;;23.80;43.90;;;;;;4909958;28;46854;-64
2022/07/13 04:54:04;;;;;;;1.10;0.88;;;23.80;44.10;;;;;;4926374;28;45403;-64
2022/07/13 04:56:30;;;;;;;1.55;0.90;;;23.80;44.10;;;;;;4929020;28;45498;-62
2022/07/13 04:58:56;;;;;;;3.42;1.10;;;23.80;44.00;;;;;;4925314;28;45176;-62
2022/07/13 05:01:21;;;;;;;0.90;0.77;;;23.80;44.00;;;;;;4910582;28;46395;-62
2022/07/13 05:03:47;;;;;;;1.30;1.20;;;23.80;44.00;;;;;;4912557;28;45213;-66
2022/07/13 05:06:14;;;;;;;1.20;1.02;;;23.80;44.00;;;;;;4927950;28;45074;-63
2022/07/13 05:08:40;;;;;;;2.03;1.00;;;23.80;44.00;;;;;;4912472;28;45541;-62
2022/07/13 05:11:05;;;;;;;1.48;1.13;;;23.80;44.00;;;;;;4931618;28;46223;-62
2022/07/13 05:13:31;;;;;;;1.73;1.00;;;23.80;44.00;;;;;;4921081;28;45349;-61
2022/07/13 05:15:57;;;;;;;2.15;0.90;;;23.80;44.00;;;;;;4924891;28;45163;-62
2022/07/13 05:18:22;;;;;;;1.95;1.20;;;23.80;44.00;;;;;;4932110;28;45311;-63
2022/07/13 05:20:48;;;;;;;1.38;1.23;;;23.80;44.00;;;;;;4931722;28;45904;-59
2022/07/13 05:23:14;;;;;;;2.72;1.05;;;23.90;44.10;;;;;;4922920;28;44719;-58
2022/07/13 05:25:39;;;;;;;1.90;1.00;;;23.90;44.10;;;;;;4925132;28;45411;-60
2022/07/13 05:28:05;;;;;;;1.80;1.08;;;23.90;44.10;;;;;;4933544;28;45209;-61
2022/07/13 05:30:31;;;;;;;1.23;1.10;;;23.90;44.20;;;;;;4925585;28;45848;-64
2022/07/13 05:32:56;;;;;;;3.90;1.30;;;23.90;44.20;;;;;;4927411;28;45580;-62
2022/07/13 05:35:22;;;;;;;2.55;1.10;;;24.00;44.30;;;;;;4896335;28;44699;-64
2022/07/13 05:37:47;;;;;;;1.83;1.00;;;24.00;44.20;;;;;;4934659;28;45244;-63
2022/07/13 05:40:13;;;;;;;5.30;1.10;;;24.00;44.30;;;;;;4926833;28;45981;-62
2022/07/13 05:42:39;;;;;;;2.55;1.10;;;24.00;44.20;;;;;;4918796;28;45646;-63
2022/07/13 05:45:05;;;;;;;5.40;1.25;;;24.10;44.10;;;;;;4933966;28;45284;-63
2022/07/13 05:47:31;;;;;;;2.47;1.02;;;24.20;43.80;;;;;;4923860;28;45596;-62
2022/07/13 05:49:56;;;;;;;1.90;1.05;;;24.10;43.90;;;;;;4923428;28;45525;-63
2022/07/13 05:52:22;;;;;;;2.83;1.00;;;24.10;44.10;;;;;;4928212;28;45461;-66
2022/07/13 05:54:47;;;;;;;2.17;1.00;;;24.00;44.10;;;;;;4925347;28;44768;-64
2022/07/13 05:57:13;;;;;;;3.22;1.02;;;24.00;44.20;;;;;;4921633;28;45392;-63
2022/07/13 05:59:39;;;;;;;4.97;1.20;;;24.00;44.30;;;;;;4922114;28;45224;-62
2022/07/13 06:02:04;;;;;;;1.77;1.30;;;24.00;44.30;;;;;;4928754;28;45389;-62
2022/07/13 06:04:30;;;;;;;1.65;0.90;;;24.10;44.40;;;;;;4911963;28;45402;-61
2022/07/13 06:06:55;;;;;;;2.80;1.17;;;24.10;45.00;;;;;;4918016;28;45521;-62
2022/07/13 06:09:21;;;;;;;2.38;1.10;;;24.10;44.50;;;;;;4926842;28;46185;-62
2022/07/13 06:11:47;;;;;;;3.65;1.40;;;24.00;44.50;;;;;;4922330;28;44871;-62
2022/07/13 06:14:13;;;;;;;1.15;0.90;;;24.10;44.50;;;;;;4929933;28;45504;-63
2022/07/13 06:16:38;;;;;;;1.50;1.00;;;24.10;44.40;;;;;;4928257;28;45373;-62
2022/07/13 06:19:04;;;;;;;3.33;1.33;;;24.10;44.40;;;;;;4933944;28;45833;-62
2022/07/13 06:21:29;;;;;;;2.20;1.00;;;24.10;44.40;;;;;;4919710;28;45388;-62
2022/07/13 06:23:55;;;;;;;3.95;1.00;;;24.10;44.40;;;;;;4930705;28;45529;-61
2022/07/13 06:26:20;;;;;;;2.22;1.00;;;24.10;44.40;;;;;;4938118;28;45536;-62
2022/07/13 06:28:46;;;;;;;1.10;1.00;;;24.10;44.30;;;;;;4938296;28;45188;-61
2022/07/13 06:31:11;;;;;;;1.73;1.15;;;24.20;44.40;;;;;;4930038;28;45242;-61
2022/07/13 06:33:37;;;;;;;2.67;1.02;;;24.20;44.40;;;;;;4934147;28;45738;-61
2022/07/13 06:36:03;;;;;;;1.50;0.90;;;24.20;44.30;;;;;;4936435;28;45525;-61
2022/07/13 06:38:28;;;;;;;1.35;1.00;;;24.20;44.30;;;;;;4914490;28;45996;-62
2022/07/13 06:40:54;;;;;;;1.60;1.13;;;24.30;44.30;;;;;;4928235;28;46521;-60
2022/07/13 06:43:19;;;;;;;2.63;1.15;;;24.30;44.40;;;;;;4938507;28;45240;-63
2022/07/13 06:45:45;;;;;;;2.70;1.23;;;24.30;44.30;;;;;;4932863;28;45447;-62
2022/07/13 06:48:10;;;;;;;3.17;1.30;;;24.30;44.30;;;;;;4926857;28;45149;-61
2022/07/13 06:50:36;;;;;;;5.07;1.20;;;24.40;44.30;;;;;;4921616;28;44720;-61
2022/07/13 06:53:02;;;;;;;1.83;0.98;;;24.40;44.20;;;;;;4927988;28;45454;-60
2022/07/13 06:55:28;;;;;;;3.33;0.90;;;24.40;44.20;;;;;;4935998;28;44984;-61
2022/07/13 06:57:55;;;;;;;4.22;1.40;;;24.40;44.10;;;;;;4929669;28;45218;-61
2022/07/13 07:00:20;;;;;;;4.53;1.10;;;24.40;44.20;;;;;;4927591;28;45414;-60
2022/07/13 07:02:46;;;;;;;4.60;1.30;;;24.40;44.10;;;;;;4918523;28;45437;-65
2022/07/13 07:05:11;;;;;;;3.53;1.30;;;24.50;44.20;;;;;;4906280;28;45832;-62
2022/07/13 07:07:38;;;;;;;3.15;1.02;;;24.50;44.20;;;;;;4915800;28;45967;-61
2022/07/13 07:10:03;;;;;;;3.10;1.50;;;24.50;44.30;;;;;;4917257;28;45479;-60
2022/07/13 07:12:29;;;;;;;4.22;1.42;;;24.50;44.40;;;;;;4933777;28;45452;-60
2022/07/13 07:14:55;;;;;;;4.40;1.58;;;24.50;44.30;;;;;;4930197;28;44733;-61
2022/07/13 07:17:20;;;;;;;3.67;1.52;;;24.50;44.40;;;;;;4917134;28;45974;-61
2022/07/13 07:19:46;;;;;;;5.78;1.73;;;24.50;45.00;;;;;;4918437;28;44730;-61
2022/07/13 07:22:12;;;;;;;2.80;1.60;;;24.50;44.50;;;;;;4929213;28;45023;-61
2022/07/13 07:24:39;;;;;;;2.78;1.40;;;24.50;44.50;;;;;;4919449;28;45189;-61
2022/07/13 07:27:07;;;;;;;3.38;1.42;;;24.50;44.60;;;;;;4930385;28;46211;-61
2022/07/13 07:29:34;;;;;;;4.40;1.55;;;24.60;44.50;;;;;;4928289;28;45273;-61
2022/07/13 07:32:01;;;;;;;2.03;1.48;;;24.60;44.50;;;;;;4935156;28;45343;-62
2022/07/13 07:34:27;;;;;;;3.92;1.70;;;24.60;44.50;;;;;;4920606;28;45279;-61
2022/07/13 07:36:53;;;;;;;3.30;1.10;;;24.70;44.50;;;;;;4933695;28;45385;-60
2022/07/13 07:39:18;;;;;;;2.00;1.30;;;24.60;44.50;;;;;;4933240;28;44927;-61
2022/07/13 07:41:44;;;;;;;2.53;1.20;;;24.70;44.50;;;;;;4916264;28;45231;-64
2022/07/13 07:44:09;;;;;;;5.47;1.13;;;24.70;44.60;;;;;;4927180;28;45597;-61
2022/07/13 07:46:35;;;;;;;1.77;1.10;;;24.70;44.50;;;;;;4918281;28;46162;-61
2022/07/13 07:49:03;;;;;;;3.40;1.10;;;24.80;44.40;;;;;;4933911;28;45261;-61
2022/07/13 07:51:28;;;;;;;3.65;1.20;;;24.80;44.30;;;;;;4918735;28;45402;-62
2022/07/13 07:53:54;;;;;;;1.38;1.08;;;24.80;44.20;;;;;;4932502;28;45653;-60
2022/07/13 07:56:20;;;;;;;3.00;1.00;;;24.80;44.20;;;;;;4926874;28;45837;-61
2022/07/13 07:58:45;;;;;;;2.45;1.00;;;24.80;44.20;;;;;;4937878;28;45400;-60
2022/07/13 08:01:11;;;;;;;1.80;1.13;;;24.80;44.20;;;;;;4926591;28;44787;-62
2022/07/13 08:03:36;;;;;;;3.92;1.23;;;24.90;44.20;;;;;;4932523;28;45011;-62
2022/07/13 08:06:02;;;;;;;3.40;1.00;;;24.90;44.10;;;;;;4923633;28;45993;-62
2022/07/13 08:08:28;;;;;;;1.83;0.98;;;24.90;44.10;;;;;;4925375;28;45452;-61
2022/07/13 08:10:54;;;;;;;5.18;1.27;;;24.90;44.00;;;;;;4932184;28;44699;-61
2022/07/13 08:13:19;;;;;;;2.05;0.88;;;24.90;44.00;;;;;;4929900;28;45015;-64
2022/07/13 08:15:45;;;;;;;0.95;0.73;;;25.00;44.10;;;;;;4923499;28;46191;-61
2022/07/13 08:18:11;;;;;;;3.55;0.98;;;25.00;44.00;;;;;;4931422;28;45465;-61
2022/07/13 08:20:36;;;;;;;1.80;0.90;;;25.10;44.00;;;;;;4902037;28;44930;-61
2022/07/13 08:23:02;;;;;;;0.80;0.70;;;25.10;44.00;;;;;;4916219;28;45049;-61
2022/07/13 08:25:28;;;;;;;1.00;0.75;;;25.10;44.00;;;;;;4933662;28;45139;-62
2022/07/13 08:27:53;;;;;;;5.00;1.23;;;25.10;44.00;;;;;;4919177;28;45225;-61
2022/07/13 08:30:20;;;;;;;1.00;0.70;;;25.20;44.00;;;;;;4930924;28;45463;-61
2022/07/13 08:32:45;;;;;;;1.58;0.80;;;25.20;44.00;;;;;;4934125;28;45310;-63
2022/07/13 08:40:42;;;;;;;1.70;0.90;;;25.30;44.00;;;;;;4928906;28;45031;-62
2022/07/13 08:43:08;;;;;;;1.60;0.60;;;25.30;43.90;;;;;;4900325;28;44653;-61
2022/07/13 08:45:33;;;;;;;1.55;0.85;;;25.30;43.90;;;;;;4932490;28;45219;-61
2022/07/13 08:48:00;;;;;;;0.98;0.70;;;25.40;43.90;;;;;;4928567;28;44961;-61
2022/07/13 08:50:25;;;;;;;0.90;0.63;;;25.40;43.80;;;;;;4926125;28;44960;-62
2022/07/13 08:52:51;;;;;;;0.85;0.80;;;25.40;43.80;;;;;;4932635;28;45076;-61
2022/07/13 08:55:16;;;;;;;3.00;0.77;;;25.40;43.70;;;;;;4918753;28;46077;-60
2022/07/13 08:57:42;;;;;;;1.40;0.75;;;25.50;43.70;;;;;;4920473;28;45503;-61
2022/07/13 09:00:10;;;;;;;1.95;0.70;;;25.60;43.70;;;;;;4927464;28;44804;-61
2022/07/13 09:02:36;;;;;;;7.47;0.75;;;25.60;43.60;;;;;;4917164;28;45546;-60
2022/07/13 09:05:04;;;;;;;1.95;0.65;;;25.60;43.50;;;;;;4930867;28;45194;-62
2022/07/13 09:07:30;;;;;;;4.25;0.60;;;25.60;43.40;;;;;;4929036;28;45445;-60
2022/07/13 09:09:56;;;;;;;0.93;0.65;;;25.70;43.40;;;;;;4913589;28;44890;-60
2022/07/13 09:12:26;;;;;;;2.05;0.82;;;25.70;43.40;;;;;;4924729;28;45701;-61
2022/07/13 09:14:58;;;;;;;2.08;0.70;;;25.80;43.40;;;;;;4924274;28;45955;-62
2022/07/13 09:17:29;;;;;;;0.80;0.60;;;25.90;43.30;;;;;;4923895;28;45194;-61
2022/07/13 09:19:55;;;;;;;1.85;0.60;;;25.90;43.10;;;;;;4935214;28;45354;-61
2022/07/13 09:22:20;;;;;;;1.98;0.65;;;25.90;43.00;;;;;;4919735;28;44972;-63
2022/07/13 09:24:47;;;;;;;1.33;0.60;;;26.00;42.90;;;;;;4935422;28;45342;-61
2022/07/13 09:27:16;;;;;;;0.77;0.68;;;26.00;42.70;;;;;;4909263;28;44913;-63
2022/07/13 09:29:42;;;;;;;0.82;0.60;;;26.10;42.60;;;;;;4902448;28;45682;-62
2022/07/13 09:32:09;;;;;;;4.53;0.60;;;26.10;42.50;;;;;;4918454;28;45407;-62
2022/07/13 09:34:46;;;;;;;1.40;0.50;;;26.10;42.40;;;;;;4922931;28;45521;-61
2022/07/13 09:37:11;;;;;;;3.03;0.63;;;26.20;42.10;;;;;;4928235;28;45429;-60
2022/07/13 09:40:07;;;;;;;0.60;0.32;;;26.20;42.20;;;;;;4917142;28;45046;-62
2022/07/13 09:42:38;;;;;;;0.55;0.43;;;26.20;42.00;;;;;;4917915;28;44716;-61
2022/07/13 09:47:53;;;;;;;2.15;0.40;;;26.30;41.70;;;;;;4930720;28;45307;-62
2022/07/13 09:50:19;;;;;;;1.00;0.35;;;26.40;41.40;;;;;;4925270;28;44748;-65
2022/07/13 09:52:46;;;;;;;0.85;0.40;;;26.40;41.60;;;;;;4927098;28;45378;-61
2022/07/13 09:55:13;;;;;;;2.78;0.55;;;26.40;41.40;;;;;;4939316;28;46138;-61
2022/07/13 09:57:50;;;;;;;1.30;0.30;;;26.40;41.30;;;;;;4904174;28;45462;-63
2022/07/13 10:00:17;;;;;;;0.63;0.22;;;26.50;41.20;;;;;;4918906;28;45149;-63
2022/07/13 10:02:50;;;;;;;2.80;0.30;;;26.50;41.00;;;;;;4932797;28;45082;-62
2022/07/13 10:05:16;;;;;;;0.93;0.40;;;26.60;40.80;;;;;;4932760;28;45161;-63
2022/07/13 10:07:43;;;;;;;1.80;0.43;;;26.60;40.80;;;;;;4916003;28;45473;-62
2022/07/13 10:10:13;;;;;;;1.08;0.43;;;26.70;40.70;;;;;;4928303;28;46237;-64
2022/07/13 10:12:39;;;;;;;0.30;0.30;;;26.70;40.60;;;;;;4935924;28;45435;-63
2022/07/13 10:15:05;;;;;;;1.05;0.45;;;26.70;40.40;;;;;;4936639;28;46040;-62
2022/07/13 10:17:30;;;;;;;1.95;0.40;;;26.80;40.40;;;;;;4918649;28;45460;-62
2022/07/13 10:19:56;;;;;;;0.68;0.45;;;26.80;40.30;;;;;;4932633;28;45056;-65
2022/07/13 10:22:23;;;;;;;0.32;0.20;;;26.80;40.20;;;;;;4933021;28;45543;-62
2022/07/13 10:24:52;;;;;;;0.30;0.30;;;26.90;40.00;;;;;;4924790;28;46238;-61
2022/07/13 10:27:26;;;;;;;2.28;0.75;;;26.90;39.70;;;;;;4937111;28;45169;-61
2022/07/13 10:29:56;;;;;;;1.48;0.35;;;26.90;39.40;;;;;;4936865;28;45238;-60
2022/07/13 10:32:29;;;;;;;0.20;0.20;;;27.00;39.10;;;;;;4923579;28;45312;-63
2022/07/13 10:34:59;;;;;;;1.10;0.30;;;27.00;38.70;;;;;;4932222;28;45396;-65
2022/07/13 10:37:26;;;;;;;0.57;0.40;;;27.00;38.90;;;;;;4939593;28;45176;-62
2022/07/13 10:40:21;;;;;;;0.20;0.20;;;27.10;39.00;;;;;;4891984;28;45209;-64
2022/07/13 10:42:53;;;;;;;2.95;0.32;;;27.10;38.10;;;;;;4918721;28;45373;-64
2022/07/13 10:45:40;;;;;;;0.47;0.30;;;27.10;38.20;;;;;;4937558;28;46127;-63
2022/07/13 10:48:13;;;;;;;1.05;0.30;;;27.20;37.50;;;;;;4927173;28;45379;-63
2022/07/13 10:50:48;;;;;;;;;;;27.20;38.00;;;;;;4932094;28;45284;-64
2022/07/13 10:53:18;;;;;;;2.72;0.30;;;27.20;36.90;;;;;;4923928;28;45494;-62
2022/07/13 10:55:50;;;;;;;0.73;0.30;;;27.30;37.90;;;;;;4932224;28;46096;-63
2022/07/13 10:58:31;;;;;;;0.20;0.20;;;27.40;37.70;;;;;;4931084;28;45165;-61
2022/07/13 11:00:58;;;;;;;1.90;0.40;;;27.40;37.20;;;;;;4930349;28;45293;-62
2022/07/13 11:03:27;;;;;;;1.63;0.28;;;27.40;37.30;;;;;;4918123;28;45318;-62
2022/07/13 11:06:07;;;;;;;0.85;0.30;;;27.50;37.00;;;;;;4933707;28;45289;-58
2022/07/13 11:08:33;;;;;;;0.40;0.40;;;27.50;36.30;;;;;;4931516;28;44647;-65
2022/07/13 11:11:09;;;;;;;0.85;0.20;;;27.60;36.90;;;;;;4931572;28;44939;-61
2022/07/13 11:13:35;;;;;;;0.43;0.28;;;27.50;36.30;;;;;;4932424;28;45476;-64
2022/07/13 11:16:01;;;;;;;1.02;0.28;;;27.60;36.80;;;;;;4894432;28;47087;-63
2022/07/13 11:18:29;;;;;;;2.28;0.40;;;27.60;36.60;;;;;;4922455;28;45137;-62
2022/07/13 11:21:12;;;;;;;0.38;0.10;;;27.60;36.30;;;;;;4937446;28;45174;-62
2022/07/13 11:26:34;;;;;;;0.35;0.35;;;27.80;35.30;;;;;;4930771;28;45329;-62
2022/07/13 11:29:30;;;;;;;1.10;0.38;;;27.80;35.10;;;;;;4931842;28;45209;-62
2022/07/13 11:31:58;;;;;;;0.55;0.40;;;27.80;34.20;;;;;;4928908;28;44964;-63
2022/07/13 11:34:24;;;;;;;0.88;0.32;;;27.80;35.20;;;;;;4921666;28;45452;-64
2022/07/13 11:36:50;;;;;;;0.20;0.20;;;27.90;34.90;;;;;;4924709;28;45130;-64
2022/07/13 11:39:26;;;;;;;2.83;0.40;;;27.90;34.80;;;;;;4907201;28;45399;-63
2022/07/13 11:41:53;;;;;;;0.40;0.30;;;27.90;34.10;;;;;;4928701;28;44737;-65
2022/07/13 11:44:25;;;;;;;0.47;0.47;;;27.90;34.80;;;;;;4937753;28;45216;-63
2022/07/13 11:46:51;;;;;;;0.50;0.40;;;27.90;34.60;;;;;;4925331;28;47199;-63
2022/07/13 11:49:17;;;;;;;0.65;0.52;;;27.90;34.90;;;;;;4933820;28;45330;-63
2022/07/13 11:51:44;;;;;;;0.30;0.13;;;27.90;34.90;;;;;;4923261;28;44746;-63
2022/07/13 11:54:16;;;;;;;2.22;0.30;;;27.90;35.00;;;;;;4920931;28;45418;-62
2022/07/13 11:56:52;;;;;;;3.10;0.50;;;27.90;34.90;;;;;;4922174;28;45161;-63
2022/07/13 11:59:42;;;;;;;2.30;0.30;;;27.90;34.90;;;;;;4935045;28;44956;-63
2022/07/13 12:02:09;;;;;;;2.35;0.30;;;27.90;34.50;;;;;;4930458;28;45355;-63
2022/07/13 12:04:45;;;;;;;2.40;0.30;;;27.90;35.20;;;;;;4918041;28;44798;-63
2022/07/13 12:07:13;;;;;;;1.48;0.40;;;28.00;34.90;;;;;;4936221;28;46063;-63
2022/07/13 12:09:47;;;;;;;0.32;0.30;;;28.00;35.20;;;;;;4927231;28;45292;-62
2022/07/13 12:12:13;;;;;;;1.35;0.38;;;28.00;34.70;;;;;;4920896;28;45110;-62
2022/07/13 12:14:38;;;;;;;0.57;0.32;;;28.00;35.00;;;;;;4922909;28;45454;-60
2022/07/13 12:17:04;;;;;;;0.38;0.30;;;28.10;34.90;;;;;;4908185;28;46117;-62
2022/07/13 12:19:29;;;;;;;0.45;0.40;;;28.10;34.60;;;;;;4920520;28;45503;-61
2022/07/13 12:21:58;;;;;;;0.75;0.20;;;28.20;34.40;;;;;;4915434;28;45232;-62
2022/07/13 12:24:24;;;;;;;0.20;0.20;;;28.20;34.00;;;;;;4923927;28;45373;-62
2022/07/13 12:26:53;;;;;;;0.60;0.28;;;28.20;34.30;;;;;;4924003;28;45113;-61
2022/07/13 12:29:31;;;;;;;1.15;0.20;;;28.30;34.30;;;;;;4933607;28;45468;-58
2022/07/13 12:31:58;;;;;;;0.95;0.30;;;28.30;33.90;;;;;;4936341;28;45299;-60
2022/07/13 12:34:23;;;;;;;1.05;0.30;;;28.20;34.30;;;;;;4932838;28;44701;-60
2022/07/13 12:36:49;;;;;;;0.32;0.30;;;28.20;34.20;;;;;;4935322;28;46507;-60
2022/07/13 12:39:15;;;;;;;0.82;0.30;;;28.30;33.90;;;;;;4932892;28;45164;-60
2022/07/13 12:41:42;;;;;;;2.88;0.30;;;28.30;33.90;;;;;;4907180;28;45217;-60
2022/07/13 12:44:08;;;;;;;0.28;0.28;;;28.40;33.60;;;;;;4934917;28;45438;-61
2022/07/13 12:46:52;;;;;;;0.80;0.40;;;28.40;33.50;;;;;;4916127;28;46179;-61
2022/07/13 12:49:18;;;;;;;0.40;0.20;;;28.40;32.70;;;;;;4906807;28;45169;-61
2022/07/13 12:51:49;;;;;;;0.32;0.20;;;28.40;33.40;;;;;;4935415;28;45212;-60
2022/07/13 12:54:14;;;;;;;0.20;0.20;;;28.40;33.20;;;;;;4930134;28;45305;-64
2022/07/13 12:56:51;;;;;;;2.30;0.35;;;28.40;33.60;;;;;;4938110;28;45882;-58
2022/07/13 12:59:18;;;;;;;0.20;0.20;;;28.50;32.60;;;;;;4939020;28;44887;-61
2022/07/13 13:01:44;;;;;;;0.43;0.43;;;28.50;33.40;;;;;;4909903;28;45373;-62
2022/07/13 13:04:11;;;;;;;0.15;0.15;;;28.50;33.40;;;;;;4930922;28;45524;-61
2022/07/13 13:06:39;;;;;;;1.38;0.30;;;28.50;33.30;;;;;;4923726;28;46040;-61
2022/07/13 13:09:17;;;;;;;0.60;0.40;;;28.50;33.40;;;;;;4934548;28;45059;-60
2022/07/13 13:11:44;;;;;;;1.98;0.30;;;28.50;33.00;;;;;;4933912;28;45713;-62
2022/07/13 13:14:10;;;;;;;1.65;0.30;;;28.50;32.90;;;;;;4933042;28;45284;-59
2022/07/13 13:16:36;;;;;;;0.40;0.30;;;28.50;32.80;;;;;;4908862;28;46174;-60
2022/07/13 13:19:01;;;;;;;1.25;0.40;;;28.60;32.70;;;;;;4938433;28;45209;-62
2022/07/13 13:21:27;;;;;;;3.25;0.30;;;28.60;32.80;;;;;;4904491;28;44691;-61
2022/07/13 13:23:53;;;;;;;0.77;0.40;;;28.60;32.80;;;;;;4933824;28;45456;-62
2022/07/13 13:26:18;;;;;;;0.30;0.30;;;28.60;32.70;;;;;;4915876;28;45443;-61
2022/07/13 13:31:28;;;;;;;0.20;0.20;;;28.70;32.40;;;;;;4930654;28;44733;-61
2022/07/13 13:33:53;;;;;;;1.10;0.22;;;28.70;32.30;;;;;;4930416;28;44721;-63
2022/07/13 13:36:19;;;;;;;1.50;0.30;;;28.70;32.20;;;;;;4909730;28;46163;-59
2022/07/13 13:38:45;;;;;;;0.50;0.20;;;28.70;32.20;;;;;;4936490;28;44933;-61
2022/07/13 13:41:10;;;;;;;0.95;0.25;;;28.70;32.30;;;;;;4932740;28;45213;-65
2022/07/13 13:43:36;;;;;;;1.83;0.50;;;28.70;32.50;;;;;;4922964;28;45260;-61
2022/07/13 13:46:01;;;;;;;3.30;0.30;;;28.70;32.40;;;;;;4936208;28;46092;-64
2022/07/13 13:48:27;;;;;;;0.73;0.40;;;28.70;32.20;;;;;;4933719;28;45268;-63
2022/07/13 13:50:52;;;;;;;1.17;0.35;;;28.80;32.30;;;;;;4937042;28;44957;-64
2022/07/13 13:53:18;;;;;;;0.45;0.30;;;28.80;32.20;;;;;;4907507;28;45361;-61
2022/07/13 13:55:44;;;;;;;0.90;0.20;;;28.80;32.20;;;;;;4915383;28;47348;-62
2022/07/13 13:58:10;;;;;;;1.85;0.40;;;28.80;32.00;;;;;;4937908;28;45066;-62
2022/07/13 14:00:35;;;;;;;2.30;0.20;;;28.90;32.00;;;;;;4919859;28;44819;-62
2022/07/13 14:03:01;;;;;;;2.33;0.57;;;28.90;31.90;;;;;;4933572;28;45137;-62
2022/07/13 14:05:27;;;;;;;0.85;0.32;;;29.00;31.70;;;;;;4930693;28;46270;-61
2022/07/13 14:07:53;;;;;;;0.93;0.25;;;29.00;31.60;;;;;;4926284;28;45091;-59
2022/07/13 14:10:18;;;;;;;0.70;0.40;;;29.00;31.50;;;;;;4932516;28;45270;-61
2022/07/13 14:12:44;;;;;;;2.90;0.40;;;29.00;31.80;;;;;;4933900;28;45360;-59
2022/07/13 14:15:10;;;;;;;3.30;0.50;;;28.90;31.70;;;;;;4930005;28;45897;-64
2022/07/13 14:17:35;;;;;;;1.00;0.80;;;29.00;31.80;;;;;;4907743;28;45089;-62
2022/07/13 14:20:01;;;;;;;0.52;0.43;;;29.00;31.70;;;;;;4928607;28;45152;-61
2022/07/13 14:22:27;;;;;;;3.05;0.52;;;29.00;31.70;;;;;;4935822;28;44694;-63
2022/07/13 14:24:56;;;;;;;1.05;0.50;;;29.00;31.40;;;;;;4933145;28;46823;-62
2022/07/13 14:27:23;;;;;;;2.95;0.35;;;29.00;31.30;;;;;;4912464;28;45235;-63
2022/07/13 14:29:49;;;;;;;0.60;0.30;;;29.10;31.30;;;;;;4920934;28;45096;-62
2022/07/13 14:32:14;;;;;;;0.65;0.30;;;29.10;31.20;;;;;;4932224;28;45536;-62
2022/07/13 14:34:40;;;;;;;0.73;0.32;;;29.10;31.10;;;;;;4926564;28;44817;-63
2022/07/13 14:37:07;;;;;;;2.05;0.20;;;29.10;31.00;;;;;;4932289;28;45129;-62
2022/07/13 14:39:34;;;;;;;0.63;0.50;;;29.20;31.00;;;;;;4934041;28;45611;-62
2022/07/13 14:41:59;;;;;;;6.50;0.47;;;29.20;30.80;;;;;;4924620;28;44670;-62
2022/07/13 14:44:25;;;;;;;0.98;0.45;;;29.20;30.70;;;;;;4937590;28;48278;-62
2022/07/13 14:46:51;;;;;;;0.80;0.30;;;29.20;30.60;;;;;;4919195;28;45270;-62
2022/07/13 14:49:16;;;;;;;0.63;0.30;;;29.30;30.50;;;;;;4933733;28;45011;-60
2022/07/13 14:51:42;;;;;;;;;;;29.30;30.40;;;;;;4934310;28;45189;-60
2022/07/13 14:54:07;;;;;;;;;;;29.30;29.90;;;;;;4937248;28;45103;-63
2022/07/13 14:56:33;;;;;;;;;;;29.30;29.90;;;;;;4940760;28;46287;-61
2022/07/13 14:58:58;;;;;;;;;;;29.20;29.90;;;;;;4938038;28;44723;-63
2022/07/13 15:01:24;;;;;;;;;;;29.20;30.00;;;;;;4933998;28;45375;-63
2022/07/13 15:03:50;;;;;;;;;;;29.20;30.10;;;;;;4929384;28;46882;-64
2022/07/13 15:06:17;;;;;;;;;;;29.20;30.10;;;;;;4933030;28;45173;-63
2022/07/13 15:08:42;;;;;;;;;;;29.20;30.10;;;;;;4933210;28;44885;-62
2022/07/13 15:11:10;;;;;;;;;;;29.20;30.60;;;;;;4933056;28;45054;-62
2022/07/13 15:13:36;;;;;;;;;;;29.10;30.20;;;;;;4934134;28;46172;-53
2022/07/13 15:16:01;;;;;;;;;;;29.20;30.20;;;;;;4933758;28;45141;-55
2022/07/13 15:18:27;;;;;;;;;;;29.20;30.50;;;;;;4936625;28;45024;-57
2022/07/13 15:20:52;;;;;;;;;;;29.20;30.30;;;;;;4931231;28;45217;-54
2022/07/13 15:23:18;;;;;;;;;;;29.20;30.30;;;;;;4923676;28;46101;-57
2022/07/13 15:25:44;;;;;;;;;;;29.20;30.40;;;;;;4932144;28;44724;-54
2022/07/13 15:28:09;;;;;;;;;;;29.10;30.50;;;;;;4930677;28;45089;-56
2022/07/13 15:30:35;;;;;;;;;;;29.10;30.60;;;;;;4932272;28;44699;-54
2022/07/13 15:33:01;;;;;;;;;;;29.10;30.80;;;;;;4926748;28;45228;-53
2022/07/13 15:35:26;;;;;;;;;;;29.10;30.80;;;;;;4929653;28;44877;-51
2022/07/13 15:37:52;;;;;;;;;;;29.10;30.80;;;;;;4931404;28;45336;-52
2022/07/13 15:40:17;;;;;;;;;;;29.10;31.00;;;;;;4929700;28;45117;-53
2022/07/13 15:42:43;;;;;;;;;;;29.10;31.10;;;;;;4930955;28;45531;-52
2022/07/13 15:45:09;;;;;;;;;;;29.00;31.10;;;;;;4933399;28;45599;-50
2022/07/13 15:47:34;;;;;;;;;;;29.00;31.20;;;;;;4932465;28;45262;-52
2022/07/13 15:50:00;;;;;;;;;;;29.00;31.30;;;;;;4932236;28;45622;-53
2022/07/13 15:52:25;;;;;;;;;;;29.00;31.30;;;;;;4931062;28;45389;-56
2022/07/13 15:54:51;;;;;;;;;;;29.00;31.30;;;;;;4932939;28;45133;-52
2022/07/13 15:57:16;;;;;;;;;;;29.00;31.40;;;;;;4931178;28;45664;-55
2022/07/13 15:59:41;;;;;;;;;;;29.00;31.50;;;;;;4930589;28;45081;-57
2022/07/13 16:02:07;;;;;;;;;;;29.00;31.60;;;;;;4929950;28;46174;-54
2022/07/13 16:04:33;;;;;;;;;;;29.00;31.70;;;;;;4930421;28;45482;-52
2022/07/13 16:06:58;;;;;;;;;;;29.00;31.70;;;;;;4929026;28;45080;-55
2022/07/13 16:09:24;;;;;;;;;;;29.00;31.80;;;;;;4930357;28;45092;-55